sensor_id;sensor_type;location;lat;lon;timestamp;P1;durP1;ratioP1;P2;durP2;ratioP2
27618;SDS011;15039;50.830;4.730;2023-05-23T00:00:45;36.17;;;21.42;;
27618;SDS011;15039;50.830;4.730;2023-05-23T00:03:12;38.20;;;21.88;;
27618;SDS011;15039;50.830;4.730;2023-05-23T00:05:37;33.08;;;21.05;;
27618;SDS011;15039;50.830;4.730;2023-05-23T00:08:03;36.10;;;22.33;;
27618;SDS011;15039;50.830;4.730;2023-05-23T00:10:29;33.28;;;21.95;;
27618;SDS011;15039;50.830;4.730;2023-05-23T00:12:54;36.08;;;21.80;;
27618;SDS011;15039;50.830;4.730;2023-05-23T00:15:22;32.03;;;21.48;;
27618;SDS011;15039;50.830;4.730;2023-05-23T00:17:47;32.47;;;20.80;;
27618;SDS011;15039;50.830;4.730;2023-05-23T00:20:13;34.42;;;19.85;;
27618;SDS011;15039;50.830;4.730;2023-05-23T00:22:40;36.22;;;20.30;;
27618;SDS011;15039;50.830;4.730;2023-05-23T00:25:08;34.33;;;19.90;;
27618;SDS011;15039;50.830;4.730;2023-05-23T00:27:35;29.95;;;19.10;;
27618;SDS011;15039;50.830;4.730;2023-05-23T00:30:05;32.55;;;18.50;;
27618;SDS011;15039;50.830;4.730;2023-05-23T00:32:31;33.47;;;19.50;;
27618;SDS011;15039;50.830;4.730;2023-05-23T00:34:59;30.50;;;18.65;;
27618;SDS011;15039;50.830;4.730;2023-05-23T00:37:25;30.85;;;19.42;;
27618;SDS011;15039;50.830;4.730;2023-05-23T00:39:52;28.20;;;18.30;;
27618;SDS011;15039;50.830;4.730;2023-05-23T00:42:19;28.30;;;18.15;;
27618;SDS011;15039;50.830;4.730;2023-05-23T00:44:44;31.20;;;19.10;;
27618;SDS011;15039;50.830;4.730;2023-05-23T00:47:12;28.08;;;17.05;;
27618;SDS011;15039;50.830;4.730;2023-05-23T00:49:38;29.17;;;18.38;;
27618;SDS011;15039;50.830;4.730;2023-05-23T00:52:05;23.40;;;17.63;;
27618;SDS011;15039;50.830;4.730;2023-05-23T00:54:31;27.42;;;17.65;;
27618;SDS011;15039;50.830;4.730;2023-05-23T00:56:58;29.20;;;17.08;;
27618;SDS011;15039;50.830;4.730;2023-05-23T00:59:25;27.48;;;17.08;;
27618;SDS011;15039;50.830;4.730;2023-05-23T01:01:51;24.60;;;16.20;;
27618;SDS011;15039;50.830;4.730;2023-05-23T01:04:18;24.35;;;16.48;;
27618;SDS011;15039;50.830;4.730;2023-05-23T01:06:44;26.95;;;16.98;;
27618;SDS011;15039;50.830;4.730;2023-05-23T01:09:13;28.77;;;16.07;;
27618;SDS011;15039;50.830;4.730;2023-05-23T01:15:05;33.78;;;15.65;;
27618;SDS011;15039;50.830;4.730;2023-05-23T01:17:23;25.70;;;15.85;;
27618;SDS011;15039;50.830;4.730;2023-05-23T01:19:58;26.38;;;16.65;;
27618;SDS011;15039;50.830;4.730;2023-05-23T01:25:52;26.58;;;17.38;;
27618;SDS011;15039;50.830;4.730;2023-05-23T01:28:28;30.13;;;16.70;;
27618;SDS011;15039;50.830;4.730;2023-05-23T01:30:58;28.90;;;17.50;;
27618;SDS011;15039;50.830;4.730;2023-05-23T01:33:27;28.55;;;18.25;;
27618;SDS011;15039;50.830;4.730;2023-05-23T01:35:55;26.88;;;16.30;;
27618;SDS011;15039;50.830;4.730;2023-05-23T01:38:25;28.63;;;17.02;;
27618;SDS011;15039;50.830;4.730;2023-05-23T01:40:50;27.33;;;17.15;;
27618;SDS011;15039;50.830;4.730;2023-05-23T01:43:17;26.23;;;15.98;;
27618;SDS011;15039;50.830;4.730;2023-05-23T01:45:43;26.80;;;15.98;;
27618;SDS011;15039;50.830;4.730;2023-05-23T01:48:09;23.30;;;14.32;;
27618;SDS011;15039;50.830;4.730;2023-05-23T01:50:36;22.10;;;14.23;;
27618;SDS011;15039;50.830;4.730;2023-05-23T01:53:04;24.70;;;14.32;;
27618;SDS011;15039;50.830;4.730;2023-05-23T01:55:35;26.33;;;14.10;;
27618;SDS011;15039;50.830;4.730;2023-05-23T01:58:03;21.95;;;15.40;;
27618;SDS011;15039;50.830;4.730;2023-05-23T02:00:30;26.25;;;14.20;;
27618;SDS011;15039;50.830;4.730;2023-05-23T02:02:56;22.42;;;14.27;;
27618;SDS011;15039;50.830;4.730;2023-05-23T02:05:22;21.33;;;13.82;;
27618;SDS011;15039;50.830;4.730;2023-05-23T02:07:47;21.08;;;15.00;;
27618;SDS011;15039;50.830;4.730;2023-05-23T02:10:13;24.35;;;15.13;;
27618;SDS011;15039;50.830;4.730;2023-05-23T02:12:39;23.27;;;14.23;;
27618;SDS011;15039;50.830;4.730;2023-05-23T02:15:05;23.70;;;14.60;;
27618;SDS011;15039;50.830;4.730;2023-05-23T02:17:31;20.90;;;14.38;;
27618;SDS011;15039;50.830;4.730;2023-05-23T02:19:58;25.88;;;15.05;;
27618;SDS011;15039;50.830;4.730;2023-05-23T02:22:24;21.48;;;14.68;;
27618;SDS011;15039;50.830;4.730;2023-05-23T02:24:50;25.02;;;17.05;;
27618;SDS011;15039;50.830;4.730;2023-05-23T02:27:19;25.27;;;17.83;;
27618;SDS011;15039;50.830;4.730;2023-05-23T02:29:46;25.95;;;18.45;;
27618;SDS011;15039;50.830;4.730;2023-05-23T02:32:12;29.98;;;18.27;;
27618;SDS011;15039;50.830;4.730;2023-05-23T02:34:39;25.15;;;16.48;;
27618;SDS011;15039;50.830;4.730;2023-05-23T02:37:05;25.10;;;16.83;;
27618;SDS011;15039;50.830;4.730;2023-05-23T02:39:31;26.85;;;17.38;;
27618;SDS011;15039;50.830;4.730;2023-05-23T02:41:58;28.83;;;16.90;;
27618;SDS011;15039;50.830;4.730;2023-05-23T02:44:24;25.80;;;17.83;;
27618;SDS011;15039;50.830;4.730;2023-05-23T02:46:50;25.65;;;18.10;;
27618;SDS011;15039;50.830;4.730;2023-05-23T02:49:16;24.70;;;17.50;;
27618;SDS011;15039;50.830;4.730;2023-05-23T02:51:42;21.13;;;14.20;;
27618;SDS011;15039;50.830;4.730;2023-05-23T02:54:08;16.85;;;11.68;;
27618;SDS011;15039;50.830;4.730;2023-05-23T02:56:33;14.23;;;10.95;;
27618;SDS011;15039;50.830;4.730;2023-05-23T02:58:59;13.55;;;10.65;;
27618;SDS011;15039;50.830;4.730;2023-05-23T03:01:25;11.23;;;9.32;;
27618;SDS011;15039;50.830;4.730;2023-05-23T03:03:51;12.43;;;9.43;;
27618;SDS011;15039;50.830;4.730;2023-05-23T03:06:16;12.25;;;8.82;;
27618;SDS011;15039;50.830;4.730;2023-05-23T03:08:43;10.52;;;8.90;;
27618;SDS011;15039;50.830;4.730;2023-05-23T03:11:08;13.15;;;8.77;;
27618;SDS011;15039;50.830;4.730;2023-05-23T03:13:34;11.15;;;9.52;;
27618;SDS011;15039;50.830;4.730;2023-05-23T03:16:00;12.85;;;9.30;;
27618;SDS011;15039;50.830;4.730;2023-05-23T03:18:26;13.07;;;10.15;;
27618;SDS011;15039;50.830;4.730;2023-05-23T03:20:52;13.60;;;9.70;;
27618;SDS011;15039;50.830;4.730;2023-05-23T03:23:18;12.48;;;9.38;;
27618;SDS011;15039;50.830;4.730;2023-05-23T03:25:44;14.77;;;9.82;;
27618;SDS011;15039;50.830;4.730;2023-05-23T03:28:10;12.68;;;9.90;;
27618;SDS011;15039;50.830;4.730;2023-05-23T03:30:38;15.50;;;10.60;;
27618;SDS011;15039;50.830;4.730;2023-05-23T03:33:04;13.75;;;10.00;;
27618;SDS011;15039;50.830;4.730;2023-05-23T03:35:30;17.63;;;11.50;;
27618;SDS011;15039;50.830;4.730;2023-05-23T03:37:57;16.65;;;11.90;;
27618;SDS011;15039;50.830;4.730;2023-05-23T03:40:22;14.77;;;11.10;;
27618;SDS011;15039;50.830;4.730;2023-05-23T03:42:49;18.15;;;12.50;;
27618;SDS011;15039;50.830;4.730;2023-05-23T03:45:32;19.42;;;12.20;;
27618;SDS011;15039;50.830;4.730;2023-05-23T03:47:58;20.25;;;13.27;;
27618;SDS011;15039;50.830;4.730;2023-05-23T03:50:24;24.25;;;13.90;;
27618;SDS011;15039;50.830;4.730;2023-05-23T03:52:51;20.80;;;13.48;;
27618;SDS011;15039;50.830;4.730;2023-05-23T03:55:17;19.33;;;13.90;;
27618;SDS011;15039;50.830;4.730;2023-05-23T03:57:47;19.75;;;13.80;;
27618;SDS011;15039;50.830;4.730;2023-05-23T04:00:15;19.00;;;13.32;;
27618;SDS011;15039;50.830;4.730;2023-05-23T04:02:44;21.05;;;13.05;;
27618;SDS011;15039;50.830;4.730;2023-05-23T04:05:11;17.95;;;12.65;;
27618;SDS011;15039;50.830;4.730;2023-05-23T04:07:37;15.30;;;12.35;;
27618;SDS011;15039;50.830;4.730;2023-05-23T04:10:08;18.67;;;12.63;;
27618;SDS011;15039;50.830;4.730;2023-05-23T04:12:34;19.17;;;13.52;;
27618;SDS011;15039;50.830;4.730;2023-05-23T04:15:00;21.08;;;14.25;;
27618;SDS011;15039;50.830;4.730;2023-05-23T04:17:28;21.20;;;13.25;;
27618;SDS011;15039;50.830;4.730;2023-05-23T04:19:55;18.92;;;14.02;;
27618;SDS011;15039;50.830;4.730;2023-05-23T04:22:22;19.45;;;13.18;;
27618;SDS011;15039;50.830;4.730;2023-05-23T04:24:54;20.65;;;13.85;;
27618;SDS011;15039;50.830;4.730;2023-05-23T04:27:19;19.05;;;12.25;;
27618;SDS011;15039;50.830;4.730;2023-05-23T04:29:46;18.55;;;12.02;;
27618;SDS011;15039;50.830;4.730;2023-05-23T04:32:12;15.10;;;10.57;;
27618;SDS011;15039;50.830;4.730;2023-05-23T04:34:40;17.67;;;10.70;;
27618;SDS011;15039;50.830;4.730;2023-05-23T04:37:06;15.45;;;10.27;;
27618;SDS011;15039;50.830;4.730;2023-05-23T04:39:33;15.20;;;10.13;;
27618;SDS011;15039;50.830;4.730;2023-05-23T04:41:58;16.80;;;10.88;;
27618;SDS011;15039;50.830;4.730;2023-05-23T04:44:24;17.95;;;10.65;;
27618;SDS011;15039;50.830;4.730;2023-05-23T04:46:54;14.68;;;10.30;;
27618;SDS011;15039;50.830;4.730;2023-05-23T04:49:21;11.63;;;9.35;;
27618;SDS011;15039;50.830;4.730;2023-05-23T04:51:49;15.80;;;9.75;;
27618;SDS011;15039;50.830;4.730;2023-05-23T04:54:15;14.05;;;9.95;;
27618;SDS011;15039;50.830;4.730;2023-05-23T04:56:41;11.93;;;8.48;;
27618;SDS011;15039;50.830;4.730;2023-05-23T04:59:08;12.10;;;8.25;;
27618;SDS011;15039;50.830;4.730;2023-05-23T05:01:35;13.55;;;8.90;;
27618;SDS011;15039;50.830;4.730;2023-05-23T05:04:04;10.55;;;7.88;;
27618;SDS011;15039;50.830;4.730;2023-05-23T05:06:30;10.95;;;7.60;;
27618;SDS011;15039;50.830;4.730;2023-05-23T05:08:56;10.75;;;7.60;;
27618;SDS011;15039;50.830;4.730;2023-05-23T05:11:22;11.02;;;7.20;;
27618;SDS011;15039;50.830;4.730;2023-05-23T05:13:47;11.73;;;7.68;;
27618;SDS011;15039;50.830;4.730;2023-05-23T05:16:13;9.82;;;7.30;;
27618;SDS011;15039;50.830;4.730;2023-05-23T05:18:39;9.98;;;7.03;;
27618;SDS011;15039;50.830;4.730;2023-05-23T05:21:05;11.57;;;7.50;;
27618;SDS011;15039;50.830;4.730;2023-05-23T05:23:32;12.15;;;6.47;;
27618;SDS011;15039;50.830;4.730;2023-05-23T05:25:57;10.15;;;6.55;;
27618;SDS011;15039;50.830;4.730;2023-05-23T05:28:24;13.38;;;7.10;;
27618;SDS011;15039;50.830;4.730;2023-05-23T05:30:51;13.18;;;7.70;;
27618;SDS011;15039;50.830;4.730;2023-05-23T05:33:18;11.20;;;6.90;;
27618;SDS011;15039;50.830;4.730;2023-05-23T05:35:45;8.93;;;7.05;;
27618;SDS011;15039;50.830;4.730;2023-05-23T05:38:10;10.82;;;7.13;;
27618;SDS011;15039;50.830;4.730;2023-05-23T05:40:36;14.95;;;7.65;;
27618;SDS011;15039;50.830;4.730;2023-05-23T05:43:02;12.10;;;7.65;;
27618;SDS011;15039;50.830;4.730;2023-05-23T05:45:29;11.07;;;6.97;;
27618;SDS011;15039;50.830;4.730;2023-05-23T05:47:55;11.55;;;7.35;;
27618;SDS011;15039;50.830;4.730;2023-05-23T05:50:22;11.27;;;7.30;;
27618;SDS011;15039;50.830;4.730;2023-05-23T05:52:48;9.98;;;6.90;;
27618;SDS011;15039;50.830;4.730;2023-05-23T05:55:14;9.35;;;6.85;;
27618;SDS011;15039;50.830;4.730;2023-05-23T05:57:47;8.80;;;6.50;;
27618;SDS011;15039;50.830;4.730;2023-05-23T06:00:13;10.35;;;6.95;;
27618;SDS011;15039;50.830;4.730;2023-05-23T06:02:42;8.95;;;6.35;;
27618;SDS011;15039;50.830;4.730;2023-05-23T06:07:38;8.48;;;6.80;;
27618;SDS011;15039;50.830;4.730;2023-05-23T06:10:05;9.03;;;6.90;;
27618;SDS011;15039;50.830;4.730;2023-05-23T06:12:32;10.90;;;7.10;;
27618;SDS011;15039;50.830;4.730;2023-05-23T06:14:57;12.13;;;7.15;;
27618;SDS011;15039;50.830;4.730;2023-05-23T06:17:23;13.23;;;7.75;;
27618;SDS011;15039;50.830;4.730;2023-05-23T06:19:49;12.07;;;7.53;;
27618;SDS011;15039;50.830;4.730;2023-05-23T06:22:15;11.27;;;7.50;;
27618;SDS011;15039;50.830;4.730;2023-05-23T06:24:42;11.77;;;7.75;;
27618;SDS011;15039;50.830;4.730;2023-05-23T06:27:08;17.83;;;9.18;;
27618;SDS011;15039;50.830;4.730;2023-05-23T06:29:33;16.13;;;8.98;;
27618;SDS011;15039;50.830;4.730;2023-05-23T06:32:02;14.48;;;8.57;;
27618;SDS011;15039;50.830;4.730;2023-05-23T06:34:27;20.33;;;9.60;;
27618;SDS011;15039;50.830;4.730;2023-05-23T06:36:55;18.75;;;9.88;;
27618;SDS011;15039;50.830;4.730;2023-05-23T06:39:20;21.15;;;9.55;;
27618;SDS011;15039;50.830;4.730;2023-05-23T06:41:46;17.23;;;10.50;;
27618;SDS011;15039;50.830;4.730;2023-05-23T06:44:12;24.05;;;11.38;;
27618;SDS011;15039;50.830;4.730;2023-05-23T06:46:39;29.52;;;9.85;;
27618;SDS011;15039;50.830;4.730;2023-05-23T06:49:04;15.43;;;9.02;;
27618;SDS011;15039;50.830;4.730;2023-05-23T06:51:30;19.48;;;8.75;;
27618;SDS011;15039;50.830;4.730;2023-05-23T06:53:57;15.05;;;8.55;;
27618;SDS011;15039;50.830;4.730;2023-05-23T06:56:23;14.02;;;8.05;;
27618;SDS011;15039;50.830;4.730;2023-05-23T06:58:48;17.67;;;8.25;;
27618;SDS011;15039;50.830;4.730;2023-05-23T07:01:14;12.57;;;8.43;;
27618;SDS011;15039;50.830;4.730;2023-05-23T07:03:40;22.20;;;8.30;;
27618;SDS011;15039;50.830;4.730;2023-05-23T07:06:08;17.83;;;7.63;;
27618;SDS011;15039;50.830;4.730;2023-05-23T07:08:34;14.20;;;7.07;;
27618;SDS011;15039;50.830;4.730;2023-05-23T07:11:00;14.07;;;5.95;;
27618;SDS011;15039;50.830;4.730;2023-05-23T07:13:28;10.07;;;5.20;;
27618;SDS011;15039;50.830;4.730;2023-05-23T07:15:54;11.15;;;5.28;;
27618;SDS011;15039;50.830;4.730;2023-05-23T07:18:20;12.23;;;4.97;;
27618;SDS011;15039;50.830;4.730;2023-05-23T07:20:47;7.25;;;4.50;;
27618;SDS011;15039;50.830;4.730;2023-05-23T07:23:12;12.43;;;5.85;;
27618;SDS011;15039;50.830;4.730;2023-05-23T07:25:41;9.68;;;5.35;;
27618;SDS011;15039;50.830;4.730;2023-05-23T07:28:08;8.80;;;4.40;;
27618;SDS011;15039;50.830;4.730;2023-05-23T07:30:34;9.80;;;4.43;;
27618;SDS011;15039;50.830;4.730;2023-05-23T07:33:00;9.20;;;4.32;;
27618;SDS011;15039;50.830;4.730;2023-05-23T07:35:25;10.65;;;3.55;;
27618;SDS011;15039;50.830;4.730;2023-05-23T07:37:51;5.32;;;3.35;;
27618;SDS011;15039;50.830;4.730;2023-05-23T07:40:17;5.68;;;3.00;;
27618;SDS011;15039;50.830;4.730;2023-05-23T07:42:43;6.93;;;2.75;;
27618;SDS011;15039;50.830;4.730;2023-05-23T07:45:09;9.93;;;3.25;;
27618;SDS011;15039;50.830;4.730;2023-05-23T07:47:35;5.20;;;2.58;;
27618;SDS011;15039;50.830;4.730;2023-05-23T07:50:02;5.28;;;2.45;;
27618;SDS011;15039;50.830;4.730;2023-05-23T07:52:29;4.88;;;2.65;;
27618;SDS011;15039;50.830;4.730;2023-05-23T07:54:56;8.18;;;3.13;;
27618;SDS011;15039;50.830;4.730;2023-05-23T07:57:22;6.70;;;2.80;;
27618;SDS011;15039;50.830;4.730;2023-05-23T07:59:51;4.55;;;2.50;;
27618;SDS011;15039;50.830;4.730;2023-05-23T08:02:18;4.75;;;2.65;;
27618;SDS011;15039;50.830;4.730;2023-05-23T08:05:01;6.65;;;3.00;;
27618;SDS011;15039;50.830;4.730;2023-05-23T08:07:27;6.50;;;2.90;;
27618;SDS011;15039;50.830;4.730;2023-05-23T08:09:53;5.75;;;3.00;;
27618;SDS011;15039;50.830;4.730;2023-05-23T08:12:19;5.65;;;3.25;;
27618;SDS011;15039;50.830;4.730;2023-05-23T08:14:44;7.88;;;3.20;;
27618;SDS011;15039;50.830;4.730;2023-05-23T08:17:11;9.70;;;3.15;;
27618;SDS011;15039;50.830;4.730;2023-05-23T08:19:37;9.35;;;3.40;;
27618;SDS011;15039;50.830;4.730;2023-05-23T08:22:03;8.43;;;3.53;;
27618;SDS011;15039;50.830;4.730;2023-05-23T08:24:29;6.53;;;4.07;;
27618;SDS011;15039;50.830;4.730;2023-05-23T08:26:55;9.15;;;3.38;;
27618;SDS011;15039;50.830;4.730;2023-05-23T08:29:21;9.80;;;4.45;;
27618;SDS011;15039;50.830;4.730;2023-05-23T08:31:46;11.38;;;4.43;;
27618;SDS011;15039;50.830;4.730;2023-05-23T08:34:12;9.60;;;4.05;;
27618;SDS011;15039;50.830;4.730;2023-05-23T08:36:39;7.53;;;3.60;;
27618;SDS011;15039;50.830;4.730;2023-05-23T08:39:07;11.88;;;4.10;;
27618;SDS011;15039;50.830;4.730;2023-05-23T08:41:33;11.02;;;3.72;;
27618;SDS011;15039;50.830;4.730;2023-05-23T08:43:59;10.20;;;3.90;;
27618;SDS011;15039;50.830;4.730;2023-05-23T08:46:25;11.18;;;3.65;;
27618;SDS011;15039;50.830;4.730;2023-05-23T08:48:52;8.18;;;3.67;;
27618;SDS011;15039;50.830;4.730;2023-05-23T08:51:23;7.78;;;3.75;;
27618;SDS011;15039;50.830;4.730;2023-05-23T08:53:50;10.68;;;3.70;;
27618;SDS011;15039;50.830;4.730;2023-05-23T08:56:25;7.13;;;4.03;;
27618;SDS011;15039;50.830;4.730;2023-05-23T08:58:52;9.05;;;4.30;;
27618;SDS011;15039;50.830;4.730;2023-05-23T09:01:18;9.85;;;4.45;;
27618;SDS011;15039;50.830;4.730;2023-05-23T09:03:44;9.60;;;4.03;;
27618;SDS011;15039;50.830;4.730;2023-05-23T09:06:11;10.15;;;4.38;;
27618;SDS011;15039;50.830;4.730;2023-05-23T09:08:37;8.15;;;3.80;;
27618;SDS011;15039;50.830;4.730;2023-05-23T09:11:03;10.02;;;3.88;;
27618;SDS011;15039;50.830;4.730;2023-05-23T09:13:31;14.93;;;5.45;;
27618;SDS011;15039;50.830;4.730;2023-05-23T09:16:00;6.65;;;3.80;;
27618;SDS011;15039;50.830;4.730;2023-05-23T09:21:01;8.70;;;3.90;;
27618;SDS011;15039;50.830;4.730;2023-05-23T09:23:30;8.05;;;3.35;;
27618;SDS011;15039;50.830;4.730;2023-05-23T09:26:00;12.50;;;4.10;;
27618;SDS011;15039;50.830;4.730;2023-05-23T09:28:35;6.15;;;3.47;;
27618;SDS011;15039;50.830;4.730;2023-05-23T09:31:06;6.57;;;3.10;;
27618;SDS011;15039;50.830;4.730;2023-05-23T09:33:39;7.07;;;3.17;;
27618;SDS011;15039;50.830;4.730;2023-05-23T09:36:07;6.47;;;3.53;;
27618;SDS011;15039;50.830;4.730;2023-05-23T09:38:37;6.90;;;3.15;;
27618;SDS011;15039;50.830;4.730;2023-05-23T09:41:04;3.97;;;2.85;;
27618;SDS011;15039;50.830;4.730;2023-05-23T09:43:30;7.60;;;3.22;;
27618;SDS011;15039;50.830;4.730;2023-05-23T09:45:59;4.70;;;3.25;;
27618;SDS011;15039;50.830;4.730;2023-05-23T09:48:30;6.50;;;3.58;;
27618;SDS011;15039;50.830;4.730;2023-05-23T09:50:57;8.80;;;3.95;;
27618;SDS011;15039;50.830;4.730;2023-05-23T09:53:23;6.40;;;3.20;;
27618;SDS011;15039;50.830;4.730;2023-05-23T09:55:49;8.07;;;3.53;;
27618;SDS011;15039;50.830;4.730;2023-05-23T09:58:18;6.72;;;3.88;;
27618;SDS011;15039;50.830;4.730;2023-05-23T10:00:49;10.60;;;3.10;;
27618;SDS011;15039;50.830;4.730;2023-05-23T10:03:17;7.15;;;3.90;;
27618;SDS011;15039;50.830;4.730;2023-05-23T10:05:49;8.57;;;4.40;;
27618;SDS011;15039;50.830;4.730;2023-05-23T10:13:25;8.57;;;3.80;;
27618;SDS011;15039;50.830;4.730;2023-05-23T10:16:08;7.95;;;3.45;;
27618;SDS011;15039;50.830;4.730;2023-05-23T10:18:42;8.85;;;3.60;;
27618;SDS011;15039;50.830;4.730;2023-05-23T10:23:36;9.93;;;3.30;;
27618;SDS011;15039;50.830;4.730;2023-05-23T10:26:03;7.85;;;3.95;;
27618;SDS011;15039;50.830;4.730;2023-05-23T10:28:31;9.00;;;3.47;;
27618;SDS011;15039;50.830;4.730;2023-05-23T10:30:59;5.88;;;3.70;;
27618;SDS011;15039;50.830;4.730;2023-05-23T10:33:25;7.25;;;3.80;;
27618;SDS011;15039;50.830;4.730;2023-05-23T10:35:56;8.10;;;3.67;;
27618;SDS011;15039;50.830;4.730;2023-05-23T10:38:37;7.35;;;3.35;;
27618;SDS011;15039;50.830;4.730;2023-05-23T10:44:13;7.72;;;3.15;;
27618;SDS011;15039;50.830;4.730;2023-05-23T10:46:55;6.75;;;3.83;;
27618;SDS011;15039;50.830;4.730;2023-05-23T10:49:44;9.45;;;3.75;;
27618;SDS011;15039;50.830;4.730;2023-05-23T10:52:22;5.75;;;3.10;;
27618;SDS011;15039;50.830;4.730;2023-05-23T10:54:54;5.80;;;3.42;;
27618;SDS011;15039;50.830;4.730;2023-05-23T10:57:24;5.95;;;3.28;;
27618;SDS011;15039;50.830;4.730;2023-05-23T10:59:53;7.38;;;3.97;;
27618;SDS011;15039;50.830;4.730;2023-05-23T11:02:24;5.90;;;3.25;;
27618;SDS011;15039;50.830;4.730;2023-05-23T11:08:34;4.13;;;3.40;;
27618;SDS011;15039;50.830;4.730;2023-05-23T11:11:20;7.22;;;3.30;;
27618;SDS011;15039;50.830;4.730;2023-05-23T11:16:24;4.88;;;3.03;;
27618;SDS011;15039;50.830;4.730;2023-05-23T11:19:25;4.25;;;2.70;;
27618;SDS011;15039;50.830;4.730;2023-05-23T11:21:57;3.83;;;2.55;;
27618;SDS011;15039;50.830;4.730;2023-05-23T11:27:19;4.65;;;2.58;;
27618;SDS011;15039;50.830;4.730;2023-05-23T11:29:55;4.82;;;2.92;;
27618;SDS011;15039;50.830;4.730;2023-05-23T11:32:31;8.07;;;3.10;;
27618;SDS011;15039;50.830;4.730;2023-05-23T11:35:04;5.07;;;3.00;;
27618;SDS011;15039;50.830;4.730;2023-05-23T11:37:31;4.82;;;3.15;;
27618;SDS011;15039;50.830;4.730;2023-05-23T11:39:57;5.30;;;2.38;;
27618;SDS011;15039;50.830;4.730;2023-05-23T11:42:25;5.03;;;2.10;;
27618;SDS011;15039;50.830;4.730;2023-05-23T11:44:51;3.80;;;2.50;;
27618;SDS011;15039;50.830;4.730;2023-05-23T11:47:17;4.00;;;1.90;;
27618;SDS011;15039;50.830;4.730;2023-05-23T11:49:44;6.65;;;2.63;;
27618;SDS011;15039;50.830;4.730;2023-05-23T11:52:13;4.03;;;2.55;;
27618;SDS011;15039;50.830;4.730;2023-05-23T11:54:39;4.53;;;2.83;;
27618;SDS011;15039;50.830;4.730;2023-05-23T11:57:09;6.03;;;2.65;;
27618;SDS011;15039;50.830;4.730;2023-05-23T11:59:35;5.00;;;2.42;;
27618;SDS011;15039;50.830;4.730;2023-05-23T12:02:02;4.03;;;2.30;;
27618;SDS011;15039;50.830;4.730;2023-05-23T12:04:29;4.72;;;2.08;;
27618;SDS011;15039;50.830;4.730;2023-05-23T12:06:55;5.57;;;2.13;;
27618;SDS011;15039;50.830;4.730;2023-05-23T12:09:21;4.68;;;2.20;;
27618;SDS011;15039;50.830;4.730;2023-05-23T12:11:47;5.80;;;1.80;;
27618;SDS011;15039;50.830;4.730;2023-05-23T12:14:14;4.82;;;1.80;;
27618;SDS011;15039;50.830;4.730;2023-05-23T12:16:42;6.15;;;2.15;;
27618;SDS011;15039;50.830;4.730;2023-05-23T12:19:11;4.65;;;2.30;;
27618;SDS011;15039;50.830;4.730;2023-05-23T12:24:17;7.97;;;2.10;;
27618;SDS011;15039;50.830;4.730;2023-05-23T12:26:53;6.97;;;2.50;;
27618;SDS011;15039;50.830;4.730;2023-05-23T12:29:32;6.30;;;2.28;;
27618;SDS011;15039;50.830;4.730;2023-05-23T12:31:59;4.18;;;2.00;;
27618;SDS011;15039;50.830;4.730;2023-05-23T12:34:26;7.07;;;2.00;;
27618;SDS011;15039;50.830;4.730;2023-05-23T12:36:56;6.70;;;2.55;;
27618;SDS011;15039;50.830;4.730;2023-05-23T12:39:26;15.40;;;3.53;;
27618;SDS011;15039;50.830;4.730;2023-05-23T12:41:52;8.25;;;2.20;;
27618;SDS011;15039;50.830;4.730;2023-05-23T12:44:22;6.22;;;2.03;;
27618;SDS011;15039;50.830;4.730;2023-05-23T12:46:48;12.85;;;3.05;;
27618;SDS011;15039;50.830;4.730;2023-05-23T12:49:14;7.32;;;2.13;;
27618;SDS011;15039;50.830;4.730;2023-05-23T12:51:39;6.88;;;2.80;;
27618;SDS011;15039;50.830;4.730;2023-05-23T12:54:07;5.50;;;2.13;;
27618;SDS011;15039;50.830;4.730;2023-05-23T12:56:33;7.53;;;2.17;;
27618;SDS011;15039;50.830;4.730;2023-05-23T12:58:59;9.23;;;2.95;;
27618;SDS011;15039;50.830;4.730;2023-05-23T13:01:26;6.47;;;2.33;;
27618;SDS011;15039;50.830;4.730;2023-05-23T13:03:52;9.45;;;3.40;;
27618;SDS011;15039;50.830;4.730;2023-05-23T13:06:17;7.43;;;3.25;;
27618;SDS011;15039;50.830;4.730;2023-05-23T13:08:43;6.10;;;2.38;;
27618;SDS011;15039;50.830;4.730;2023-05-23T13:11:09;5.95;;;2.17;;
27618;SDS011;15039;50.830;4.730;2023-05-23T13:13:35;7.55;;;2.40;;
27618;SDS011;15039;50.830;4.730;2023-05-23T13:16:01;6.03;;;2.35;;
27618;SDS011;15039;50.830;4.730;2023-05-23T13:18:26;6.72;;;2.67;;
27618;SDS011;15039;50.830;4.730;2023-05-23T13:20:52;6.95;;;2.53;;
27618;SDS011;15039;50.830;4.730;2023-05-23T13:23:18;6.38;;;2.53;;
27618;SDS011;15039;50.830;4.730;2023-05-23T13:25:43;6.90;;;2.50;;
27618;SDS011;15039;50.830;4.730;2023-05-23T13:28:09;12.00;;;3.65;;
27618;SDS011;15039;50.830;4.730;2023-05-23T13:30:35;9.50;;;2.67;;
27618;SDS011;15039;50.830;4.730;2023-05-23T13:33:01;7.60;;;2.58;;
27618;SDS011;15039;50.830;4.730;2023-05-23T13:35:27;10.82;;;2.95;;
27618;SDS011;15039;50.830;4.730;2023-05-23T13:37:53;16.58;;;2.63;;
27618;SDS011;15039;50.830;4.730;2023-05-23T13:40:19;9.25;;;2.30;;
27618;SDS011;15039;50.830;4.730;2023-05-23T13:42:46;9.57;;;2.72;;
27618;SDS011;15039;50.830;4.730;2023-05-23T13:45:14;9.95;;;3.20;;
27618;SDS011;15039;50.830;4.730;2023-05-23T13:47:41;7.20;;;3.05;;
27618;SDS011;15039;50.830;4.730;2023-05-23T13:50:07;6.60;;;2.85;;
27618;SDS011;15039;50.830;4.730;2023-05-23T13:52:34;10.63;;;2.97;;
27618;SDS011;15039;50.830;4.730;2023-05-23T13:55:00;5.97;;;2.50;;
27618;SDS011;15039;50.830;4.730;2023-05-23T13:57:26;6.38;;;2.70;;
27618;SDS011;15039;50.830;4.730;2023-05-23T13:59:52;6.78;;;2.42;;
27618;SDS011;15039;50.830;4.730;2023-05-23T14:02:18;8.23;;;2.85;;
27618;SDS011;15039;50.830;4.730;2023-05-23T14:04:43;7.93;;;2.50;;
27618;SDS011;15039;50.830;4.730;2023-05-23T14:07:09;13.68;;;3.72;;
27618;SDS011;15039;50.830;4.730;2023-05-23T14:09:35;10.85;;;2.88;;
27618;SDS011;15039;50.830;4.730;2023-05-23T14:12:00;11.40;;;2.92;;
27618;SDS011;15039;50.830;4.730;2023-05-23T14:14:26;5.43;;;2.05;;
27618;SDS011;15039;50.830;4.730;2023-05-23T14:16:52;10.90;;;3.40;;
27618;SDS011;15039;50.830;4.730;2023-05-23T14:19:18;8.20;;;2.35;;
27618;SDS011;15039;50.830;4.730;2023-05-23T14:21:44;7.03;;;2.65;;
27618;SDS011;15039;50.830;4.730;2023-05-23T14:24:10;8.70;;;2.75;;
27618;SDS011;15039;50.830;4.730;2023-05-23T14:26:36;11.25;;;2.53;;
27618;SDS011;15039;50.830;4.730;2023-05-23T14:29:01;8.20;;;2.90;;
27618;SDS011;15039;50.830;4.730;2023-05-23T14:31:27;7.97;;;2.50;;
27618;SDS011;15039;50.830;4.730;2023-05-23T14:33:54;19.35;;;3.15;;
27618;SDS011;15039;50.830;4.730;2023-05-23T14:36:19;13.38;;;3.38;;
27618;SDS011;15039;50.830;4.730;2023-05-23T14:38:45;5.85;;;2.50;;
27618;SDS011;15039;50.830;4.730;2023-05-23T14:41:12;14.52;;;2.88;;
27618;SDS011;15039;50.830;4.730;2023-05-23T14:43:38;7.40;;;2.17;;
27618;SDS011;15039;50.830;4.730;2023-05-23T14:46:03;8.23;;;3.05;;
27618;SDS011;15039;50.830;4.730;2023-05-23T14:48:30;23.10;;;3.53;;
27618;SDS011;15039;50.830;4.730;2023-05-23T14:50:56;6.00;;;2.38;;
27618;SDS011;15039;50.830;4.730;2023-05-23T14:55:54;9.90;;;2.58;;
27618;SDS011;15039;50.830;4.730;2023-05-23T14:58:20;11.57;;;2.83;;
27618;SDS011;15039;50.830;4.730;2023-05-23T15:00:47;10.70;;;3.00;;
27618;SDS011;15039;50.830;4.730;2023-05-23T15:03:13;9.85;;;2.65;;
27618;SDS011;15039;50.830;4.730;2023-05-23T15:05:39;9.80;;;2.95;;
27618;SDS011;15039;50.830;4.730;2023-05-23T15:08:05;13.30;;;3.42;;
27618;SDS011;15039;50.830;4.730;2023-05-23T15:10:31;8.75;;;2.75;;
27618;SDS011;15039;50.830;4.730;2023-05-23T15:12:57;12.45;;;2.78;;